sensor_id;sensor_type;location;lat;lon;timestamp;temperature;humidity
77613;DHT22;66777;52.282;5.960;2023-04-03T00:01:14;3.20;71.90
77613;DHT22;66777;52.282;5.960;2023-04-03T00:03:40;3.20;71.70
77613;DHT22;66777;52.282;5.960;2023-04-03T00:06:07;3.20;71.60
77613;DHT22;66777;52.282;5.960;2023-04-03T00:08:35;3.20;71.40
77613;DHT22;66777;52.282;5.960;2023-04-03T00:11:01;3.10;71.70
77613;DHT22;66777;52.282;5.960;2023-04-03T00:13:28;3.10;72.10
77613;DHT22;66777;52.282;5.960;2023-04-03T00:15:54;3.10;72.10
77613;DHT22;66777;52.282;5.960;2023-04-03T00:18:20;3.10;71.80
77613;DHT22;66777;52.282;5.960;2023-04-03T00:20:46;3.10;72.20
77613;DHT22;66777;52.282;5.960;2023-04-03T00:23:11;3.00;72.10
77613;DHT22;66777;52.282;5.960;2023-04-03T00:25:37;3.00;72.30
77613;DHT22;66777;52.282;5.960;2023-04-03T00:28:04;3.00;72.10
77613;DHT22;66777;52.282;5.960;2023-04-03T00:30:31;3.00;72.50
77613;DHT22;66777;52.282;5.960;2023-04-03T00:32:57;2.90;72.20
77613;DHT22;66777;52.282;5.960;2023-04-03T00:35:24;2.90;72.40
77613;DHT22;66777;52.282;5.960;2023-04-03T00:37:54;2.90;72.70
77613;DHT22;66777;52.282;5.960;2023-04-03T00:40:22;2.90;73.00
77613;DHT22;66777;52.282;5.960;2023-04-03T00:42:51;2.80;73.20
77613;DHT22;66777;52.282;5.960;2023-04-03T00:47:57;2.80;73.10
77613;DHT22;66777;52.282;5.960;2023-04-03T00:50:26;2.80;73.40
77613;DHT22;66777;52.282;5.960;2023-04-03T00:52:53;2.70;73.90
77613;DHT22;66777;52.282;5.960;2023-04-03T00:55:19;2.70;73.40
77613;DHT22;66777;52.282;5.960;2023-04-03T00:57:46;2.70;73.20
77613;DHT22;66777;52.282;5.960;2023-04-03T01:00:17;2.70;73.70
77613;DHT22;66777;52.282;5.960;2023-04-03T01:02:44;2.70;73.80
77613;DHT22;66777;52.282;5.960;2023-04-03T01:05:11;2.70;74.20
77613;DHT22;66777;52.282;5.960;2023-04-03T01:07:39;2.60;73.60
77613;DHT22;66777;52.282;5.960;2023-04-03T01:10:08;2.60;74.10
77613;DHT22;66777;52.282;5.960;2023-04-03T01:12:38;2.60;75.00
77613;DHT22;66777;52.282;5.960;2023-04-03T01:15:20;2.50;74.70
77613;DHT22;66777;52.282;5.960;2023-04-03T01:17:57;2.50;74.10
77613;DHT22;66777;52.282;5.960;2023-04-03T01:25:39;2.50;74.70
77613;DHT22;66777;52.282;5.960;2023-04-03T01:28:09;2.50;74.70
77613;DHT22;66777;52.282;5.960;2023-04-03T01:30:43;2.50;74.90
77613;DHT22;66777;52.282;5.960;2023-04-03T01:33:10;2.50;75.30
77613;DHT22;66777;52.282;5.960;2023-04-03T01:35:37;2.50;75.40
77613;DHT22;66777;52.282;5.960;2023-04-03T01:38:02;2.40;75.20
77613;DHT22;66777;52.282;5.960;2023-04-03T01:40:28;2.40;75.30
77613;DHT22;66777;52.282;5.960;2023-04-03T01:42:54;2.40;75.70
77613;DHT22;66777;52.282;5.960;2023-04-03T01:45:20;2.40;75.20
77613;DHT22;66777;52.282;5.960;2023-04-03T01:47:46;2.30;75.60
77613;DHT22;66777;52.282;5.960;2023-04-03T01:50:12;2.30;75.60
77613;DHT22;66777;52.282;5.960;2023-04-03T01:52:37;2.30;75.50
77613;DHT22;66777;52.282;5.960;2023-04-03T01:55:03;2.30;75.90
77613;DHT22;66777;52.282;5.960;2023-04-03T01:57:29;2.30;75.90
77613;DHT22;66777;52.282;5.960;2023-04-03T01:59:55;2.30;75.90
77613;DHT22;66777;52.282;5.960;2023-04-03T02:02:21;2.30;76.30
77613;DHT22;66777;52.282;5.960;2023-04-03T02:04:47;2.20;76.50
77613;DHT22;66777;52.282;5.960;2023-04-03T02:07:13;2.20;76.00
77613;DHT22;66777;52.282;5.960;2023-04-03T02:09:39;2.20;76.20
77613;DHT22;66777;52.282;5.960;2023-04-03T02:12:05;2.10;76.70
77613;DHT22;66777;52.282;5.960;2023-04-03T02:14:31;2.20;76.70
77613;DHT22;66777;52.282;5.960;2023-04-03T02:16:57;2.10;76.80
77613;DHT22;66777;52.282;5.960;2023-04-03T02:19:23;2.10;77.00
77613;DHT22;66777;52.282;5.960;2023-04-03T02:21:49;2.10;77.00
77613;DHT22;66777;52.282;5.960;2023-04-03T02:24:15;2.10;76.80
77613;DHT22;66777;52.282;5.960;2023-04-03T02:26:41;2.10;77.20
77613;DHT22;66777;52.282;5.960;2023-04-03T02:29:06;2.00;77.50
77613;DHT22;66777;52.282;5.960;2023-04-03T02:31:32;2.00;77.50
77613;DHT22;66777;52.282;5.960;2023-04-03T02:33:58;2.00;77.60
77613;DHT22;66777;52.282;5.960;2023-04-03T02:36:24;2.00;77.70
77613;DHT22;66777;52.282;5.960;2023-04-03T02:38:50;1.90;77.60
77613;DHT22;66777;52.282;5.960;2023-04-03T02:41:16;1.90;78.10
77613;DHT22;66777;52.282;5.960;2023-04-03T02:43:42;1.90;78.10
77613;DHT22;66777;52.282;5.960;2023-04-03T02:46:08;1.80;78.30
77613;DHT22;66777;52.282;5.960;2023-04-03T02:48:35;1.80;77.90
77613;DHT22;66777;52.282;5.960;2023-04-03T02:51:01;1.80;78.30
77613;DHT22;66777;52.282;5.960;2023-04-03T02:53:27;1.70;77.90
77613;DHT22;66777;52.282;5.960;2023-04-03T02:55:53;1.70;78.70
77613;DHT22;66777;52.282;5.960;2023-04-03T02:58:19;1.70;78.90
77613;DHT22;66777;52.282;5.960;2023-04-03T03:00:45;1.70;78.60
77613;DHT22;66777;52.282;5.960;2023-04-03T03:03:11;1.70;78.50
77613;DHT22;66777;52.282;5.960;2023-04-03T03:05:37;1.60;78.90
77613;DHT22;66777;52.282;5.960;2023-04-03T03:08:03;1.60;78.70
77613;DHT22;66777;52.282;5.960;2023-04-03T03:10:29;1.60;78.80
77613;DHT22;66777;52.282;5.960;2023-04-03T03:12:55;1.60;78.80
77613;DHT22;66777;52.282;5.960;2023-04-03T03:15:21;1.60;78.70
77613;DHT22;66777;52.282;5.960;2023-04-03T03:17:47;1.60;78.70
77613;DHT22;66777;52.282;5.960;2023-04-03T03:20:13;1.50;78.90
77613;DHT22;66777;52.282;5.960;2023-04-03T03:22:43;1.50;78.70
77613;DHT22;66777;52.282;5.960;2023-04-03T03:25:09;1.50;79.10
77613;DHT22;66777;52.282;5.960;2023-04-03T03:27:35;1.50;79.30
77613;DHT22;66777;52.282;5.960;2023-04-03T03:30:01;1.40;79.50
77613;DHT22;66777;52.282;5.960;2023-04-03T03:32:27;1.40;79.70
77613;DHT22;66777;52.282;5.960;2023-04-03T03:34:53;1.40;79.50
77613;DHT22;66777;52.282;5.960;2023-04-03T03:37:19;1.40;79.80
77613;DHT22;66777;52.282;5.960;2023-04-03T03:39:45;1.30;79.90
77613;DHT22;66777;52.282;5.960;2023-04-03T03:42:10;1.20;79.70
77613;DHT22;66777;52.282;5.960;2023-04-03T03:44:36;1.20;80.00
77613;DHT22;66777;52.282;5.960;2023-04-03T03:47:02;1.10;80.10
77613;DHT22;66777;52.282;5.960;2023-04-03T03:49:29;1.10;80.20
77613;DHT22;66777;52.282;5.960;2023-04-03T03:51:55;1.10;80.00
77613;DHT22;66777;52.282;5.960;2023-04-03T03:54:21;1.00;80.50
77613;DHT22;66777;52.282;5.960;2023-04-03T03:56:47;1.00;80.20
77613;DHT22;66777;52.282;5.960;2023-04-03T03:59:13;1.00;80.50
77613;DHT22;66777;52.282;5.960;2023-04-03T04:01:39;1.00;80.90
77613;DHT22;66777;52.282;5.960;2023-04-03T04:04:05;1.00;81.00
77613;DHT22;66777;52.282;5.960;2023-04-03T04:06:30;1.00;80.90
77613;DHT22;66777;52.282;5.960;2023-04-03T04:08:57;0.90;80.70
77613;DHT22;66777;52.282;5.960;2023-04-03T04:11:23;0.90;80.70
77613;DHT22;66777;52.282;5.960;2023-04-03T04:13:49;0.80;80.90
77613;DHT22;66777;52.282;5.960;2023-04-03T04:16:15;0.80;80.70
77613;DHT22;66777;52.282;5.960;2023-04-03T04:18:43;0.80;80.70
77613;DHT22;66777;52.282;5.960;2023-04-03T04:21:09;0.80;81.00
77613;DHT22;66777;52.282;5.960;2023-04-03T04:23:34;0.80;81.20
77613;DHT22;66777;52.282;5.960;2023-04-03T04:26:00;0.70;81.40
77613;DHT22;66777;52.282;5.960;2023-04-03T04:28:26;0.60;81.40
77613;DHT22;66777;52.282;5.960;2023-04-03T04:30:52;0.60;81.50
77613;DHT22;66777;52.282;5.960;2023-04-03T04:33:19;0.60;81.50
77613;DHT22;66777;52.282;5.960;2023-04-03T04:35:47;0.60;81.60
77613;DHT22;66777;52.282;5.960;2023-04-03T04:38:14;0.60;81.70
77613;DHT22;66777;52.282;5.960;2023-04-03T04:40:40;0.60;81.50
77613;DHT22;66777;52.282;5.960;2023-04-03T04:43:06;0.60;81.60
77613;DHT22;66777;52.282;5.960;2023-04-03T04:45:32;0.50;81.70
77613;DHT22;66777;52.282;5.960;2023-04-03T04:47:58;0.50;81.90
77613;DHT22;66777;52.282;5.960;2023-04-03T04:50:23;0.50;82.00
77613;DHT22;66777;52.282;5.960;2023-04-03T04:52:49;0.50;82.00
77613;DHT22;66777;52.282;5.960;2023-04-03T04:55:15;0.60;82.00
77613;DHT22;66777;52.282;5.960;2023-04-03T04:57:41;0.60;81.90
77613;DHT22;66777;52.282;5.960;2023-04-03T05:00:07;0.60;81.70
77613;DHT22;66777;52.282;5.960;2023-04-03T05:02:33;0.60;81.60
77613;DHT22;66777;52.282;5.960;2023-04-03T05:04:59;0.60;81.70
77613;DHT22;66777;52.282;5.960;2023-04-03T05:07:25;0.60;81.50
77613;DHT22;66777;52.282;5.960;2023-04-03T05:09:52;0.60;81.40
77613;DHT22;66777;52.282;5.960;2023-04-03T05:12:18;0.60;81.50
77613;DHT22;66777;52.282;5.960;2023-04-03T05:14:44;0.60;81.30
77613;DHT22;66777;52.282;5.960;2023-04-03T05:17:10;0.60;81.20
77613;DHT22;66777;52.282;5.960;2023-04-03T05:19:35;0.70;81.30
77613;DHT22;66777;52.282;5.960;2023-04-03T05:22:02;0.70;81.20
77613;DHT22;66777;52.282;5.960;2023-04-03T05:24:28;0.70;81.30
77613;DHT22;66777;52.282;5.960;2023-04-03T05:26:54;0.70;81.10
77613;DHT22;66777;52.282;5.960;2023-04-03T05:29:21;0.80;80.90
77613;DHT22;66777;52.282;5.960;2023-04-03T05:31:49;0.80;80.90
77613;DHT22;66777;52.282;5.960;2023-04-03T05:34:15;0.80;80.90
77613;DHT22;66777;52.282;5.960;2023-04-03T05:36:41;0.80;80.80
77613;DHT22;66777;52.282;5.960;2023-04-03T05:39:08;0.90;80.50
77613;DHT22;66777;52.282;5.960;2023-04-03T05:41:34;1.00;80.10
77613;DHT22;66777;52.282;5.960;2023-04-03T05:44:01;1.00;80.00
77613;DHT22;66777;52.282;5.960;2023-04-03T05:46:27;1.00;79.80
77613;DHT22;66777;52.282;5.960;2023-04-03T05:48:52;1.00;79.80
77613;DHT22;66777;52.282;5.960;2023-04-03T05:51:24;1.10;79.80
77613;DHT22;66777;52.282;5.960;2023-04-03T05:53:59;1.10;79.70
77613;DHT22;66777;52.282;5.960;2023-04-03T05:56:26;1.10;79.60
77613;DHT22;66777;52.282;5.960;2023-04-03T05:58:52;1.10;79.50
77613;DHT22;66777;52.282;5.960;2023-04-03T06:01:17;1.10;79.10
77613;DHT22;66777;52.282;5.960;2023-04-03T06:03:43;1.10;79.00
77613;DHT22;66777;52.282;5.960;2023-04-03T06:06:13;1.10;79.20
77613;DHT22;66777;52.282;5.960;2023-04-03T06:08:39;1.20;79.20
77613;DHT22;66777;52.282;5.960;2023-04-03T06:11:05;1.20;79.10
77613;DHT22;66777;52.282;5.960;2023-04-03T06:13:31;1.30;79.20
77613;DHT22;66777;52.282;5.960;2023-04-03T06:15:57;1.30;78.80
77613;DHT22;66777;52.282;5.960;2023-04-03T06:18:22;1.40;78.90
77613;DHT22;66777;52.282;5.960;2023-04-03T06:20:48;1.40;78.70
77613;DHT22;66777;52.282;5.960;2023-04-03T06:23:14;1.40;78.60
77613;DHT22;66777;52.282;5.960;2023-04-03T06:25:40;1.50;78.30
77613;DHT22;66777;52.282;5.960;2023-04-03T06:28:08;1.60;78.20
77613;DHT22;66777;52.282;5.960;2023-04-03T06:30:36;1.70;77.80
77613;DHT22;66777;52.282;5.960;2023-04-03T06:33:02;1.70;77.70
77613;DHT22;66777;52.282;5.960;2023-04-03T06:35:28;1.80;77.20
77613;DHT22;66777;52.282;5.960;2023-04-03T06:37:56;1.90;77.10
77613;DHT22;66777;52.282;5.960;2023-04-03T06:40:24;2.00;76.80
77613;DHT22;66777;52.282;5.960;2023-04-03T06:42:51;2.10;76.20
77613;DHT22;66777;52.282;5.960;2023-04-03T06:45:17;2.10;76.30
77613;DHT22;66777;52.282;5.960;2023-04-03T06:47:43;2.20;76.10
77613;DHT22;66777;52.282;5.960;2023-04-03T06:50:10;2.20;76.20
77613;DHT22;66777;52.282;5.960;2023-04-03T06:52:40;2.30;76.00
77613;DHT22;66777;52.282;5.960;2023-04-03T06:55:06;2.30;75.40
77613;DHT22;66777;52.282;5.960;2023-04-03T06:57:33;2.40;75.10
77613;DHT22;66777;52.282;5.960;2023-04-03T07:00:00;2.50;74.50
77613;DHT22;66777;52.282;5.960;2023-04-03T07:02:26;2.50;74.50
77613;DHT22;66777;52.282;5.960;2023-04-03T07:04:51;2.50;74.60
77613;DHT22;66777;52.282;5.960;2023-04-03T07:07:17;2.60;74.30
77613;DHT22;66777;52.282;5.960;2023-04-03T07:09:43;2.60;74.00
77613;DHT22;66777;52.282;5.960;2023-04-03T07:12:09;2.80;74.00
77613;DHT22;66777;52.282;5.960;2023-04-03T07:14:35;2.90;73.70
77613;DHT22;66777;52.282;5.960;2023-04-03T07:17:01;3.00;73.50
77613;DHT22;66777;52.282;5.960;2023-04-03T07:19:27;3.00;73.10
77613;DHT22;66777;52.282;5.960;2023-04-03T07:21:53;3.10;73.20
77613;DHT22;66777;52.282;5.960;2023-04-03T07:24:19;3.30;72.50
77613;DHT22;66777;52.282;5.960;2023-04-03T07:26:52;3.50;72.00
77613;DHT22;66777;52.282;5.960;2023-04-03T07:29:19;3.60;71.70
77613;DHT22;66777;52.282;5.960;2023-04-03T07:31:47;3.90;70.80
77613;DHT22;66777;52.282;5.960;2023-04-03T07:34:13;4.00;70.40
77613;DHT22;66777;52.282;5.960;2023-04-03T07:36:39;4.10;69.80
77613;DHT22;66777;52.282;5.960;2023-04-03T07:39:06;4.30;69.40
77613;DHT22;66777;52.282;5.960;2023-04-03T07:41:33;4.40;68.90
77613;DHT22;66777;52.282;5.960;2023-04-03T07:43:59;4.60;68.70
77613;DHT22;66777;52.282;5.960;2023-04-03T07:46:26;4.70;68.50
77613;DHT22;66777;52.282;5.960;2023-04-03T07:48:52;4.80;67.50
77613;DHT22;66777;52.282;5.960;2023-04-03T07:51:18;4.90;67.70
77613;DHT22;66777;52.282;5.960;2023-04-03T07:53:45;5.00;66.80
77613;DHT22;66777;52.282;5.960;2023-04-03T07:56:11;5.10;66.30
77613;DHT22;66777;52.282;5.960;2023-04-03T07:58:37;5.10;66.50
77613;DHT22;66777;52.282;5.960;2023-04-03T08:01:05;5.50;66.00
77613;DHT22;66777;52.282;5.960;2023-04-03T08:03:31;5.50;65.30
77613;DHT22;66777;52.282;5.960;2023-04-03T08:06:05;5.50;65.20
77613;DHT22;66777;52.282;5.960;2023-04-03T08:08:31;5.60;64.60
77613;DHT22;66777;52.282;5.960;2023-04-03T08:11:01;5.70;64.30
77613;DHT22;66777;52.282;5.960;2023-04-03T08:13:28;5.80;64.00
77613;DHT22;66777;52.282;5.960;2023-04-03T08:15:56;5.90;63.20
77613;DHT22;66777;52.282;5.960;2023-04-03T08:18:23;6.10;62.50
77613;DHT22;66777;52.282;5.960;2023-04-03T08:20:51;6.30;61.30
77613;DHT22;66777;52.282;5.960;2023-04-03T08:23:18;6.40;61.30
77613;DHT22;66777;52.282;5.960;2023-04-03T08:25:44;6.40;60.40
77613;DHT22;66777;52.282;5.960;2023-04-03T08:28:11;6.60;59.80
77613;DHT22;66777;52.282;5.960;2023-04-03T08:30:41;6.70;56.40
77613;DHT22;66777;52.282;5.960;2023-04-03T08:33:08;6.70;56.70
77613;DHT22;66777;52.282;5.960;2023-04-03T08:35:41;6.60;56.00
77613;DHT22;66777;52.282;5.960;2023-04-03T08:38:08;6.70;56.60
77613;DHT22;66777;52.282;5.960;2023-04-03T08:40:34;6.80;56.40
77613;DHT22;66777;52.282;5.960;2023-04-03T08:45:45;6.80;54.30
77613;DHT22;66777;52.282;5.960;2023-04-03T08:50:51;6.80;53.50
77613;DHT22;66777;52.282;5.960;2023-04-03T08:53:21;6.90;53.60
77613;DHT22;66777;52.282;5.960;2023-04-03T08:55:50;7.00;52.70
77613;DHT22;66777;52.282;5.960;2023-04-03T08:58:20;7.00;52.80
77613;DHT22;66777;52.282;5.960;2023-04-03T09:03:51;7.10;52.10
77613;DHT22;66777;52.282;5.960;2023-04-03T09:06:23;7.10;52.70
77613;DHT22;66777;52.282;5.960;2023-04-03T09:09:22;7.30;51.70
77613;DHT22;66777;52.282;5.960;2023-04-03T09:14:57;7.30;49.20
77613;DHT22;66777;52.282;5.960;2023-04-03T09:20:43;7.50;49.40
77613;DHT22;66777;52.282;5.960;2023-04-03T09:26:32;7.60;48.80
77613;DHT22;66777;52.282;5.960;2023-04-03T09:29:05;7.80;47.70
77613;DHT22;66777;52.282;5.960;2023-04-03T09:31:42;7.90;48.10
77613;DHT22;66777;52.282;5.960;2023-04-03T09:34:27;8.00;47.90
77613;DHT22;66777;52.282;5.960;2023-04-03T09:36:56;8.20;47.90
77613;DHT22;66777;52.282;5.960;2023-04-03T09:39:26;8.30;47.90
77613;DHT22;66777;52.282;5.960;2023-04-03T09:41:59;8.50;47.10
77613;DHT22;66777;52.282;5.960;2023-04-03T09:44:32;8.50;47.20
77613;DHT22;66777;52.282;5.960;2023-04-03T09:46:58;8.60;46.60
77613;DHT22;66777;52.282;5.960;2023-04-03T09:49:24;8.90;45.80
77613;DHT22;66777;52.282;5.960;2023-04-03T09:51:50;9.00;44.10
77613;DHT22;66777;52.282;5.960;2023-04-03T09:54:35;9.20;44.20
77613;DHT22;66777;52.282;5.960;2023-04-03T09:57:12;9.40;42.90
77613;DHT22;66777;52.282;5.960;2023-04-03T09:59:58;10.60;43.60
77613;DHT22;66777;52.282;5.960;2023-04-03T10:02:36;13.10;40.30
77613;DHT22;66777;52.282;5.960;2023-04-03T10:05:05;12.30;41.50
77613;DHT22;66777;52.282;5.960;2023-04-03T10:07:49;11.50;42.30
77613;DHT22;66777;52.282;5.960;2023-04-03T10:10:21;11.10;41.50
77613;DHT22;66777;52.282;5.960;2023-04-03T10:13:07;11.00;42.50
77613;DHT22;66777;52.282;5.960;2023-04-03T10:15:39;11.10;41.20
77613;DHT22;66777;52.282;5.960;2023-04-03T10:21:10;11.50;41.40
77613;DHT22;66777;52.282;5.960;2023-04-03T10:23:47;11.40;41.20
77613;DHT22;66777;52.282;5.960;2023-04-03T10:26:32;11.50;41.80
77613;DHT22;66777;52.282;5.960;2023-04-03T10:29:27;11.90;41.60
77613;DHT22;66777;52.282;5.960;2023-04-03T10:34:39;13.10;41.50
77613;DHT22;66777;52.282;5.960;2023-04-03T10:37:14;14.70;39.60
77613;DHT22;66777;52.282;5.960;2023-04-03T10:40:14;15.10;38.40
77613;DHT22;66777;52.282;5.960;2023-04-03T10:45:31;15.80;35.60
77613;DHT22;66777;52.282;5.960;2023-04-03T10:48:08;15.50;36.00
77613;DHT22;66777;52.282;5.960;2023-04-03T10:50:51;15.40;37.30
77613;DHT22;66777;52.282;5.960;2023-04-03T10:59:32;16.00;36.00
77613;DHT22;66777;52.282;5.960;2023-04-03T11:01:41;17.00;35.30
77613;DHT22;66777;52.282;5.960;2023-04-03T11:04:10;17.00;36.30
77613;DHT22;66777;52.282;5.960;2023-04-03T11:06:51;20.10;36.20
77613;DHT22;66777;52.282;5.960;2023-04-03T11:11:44;25.60;29.60
77613;DHT22;66777;52.282;5.960;2023-04-03T11:14:29;24.50;31.90
77613;DHT22;66777;52.282;5.960;2023-04-03T11:22:29;30.20;28.90
77613;DHT22;66777;52.282;5.960;2023-04-03T11:27:44;31.90;28.80
77613;DHT22;66777;52.282;5.960;2023-04-03T11:33:03;31.60;27.60
77613;DHT22;66777;52.282;5.960;2023-04-03T11:35:32;32.00;27.60
77613;DHT22;66777;52.282;5.960;2023-04-03T11:37:59;32.80;27.30
77613;DHT22;66777;52.282;5.960;2023-04-03T11:40:34;32.30;27.70
77613;DHT22;66777;52.282;5.960;2023-04-03T11:43:28;32.60;26.10
77613;DHT22;66777;52.282;5.960;2023-04-03T11:46:01;33.10;26.40
77613;DHT22;66777;52.282;5.960;2023-04-03T11:50:59;31.90;26.90
77613;DHT22;66777;52.282;5.960;2023-04-03T11:53:39;31.70;27.20
77613;DHT22;66777;52.282;5.960;2023-04-03T12:02:14;30.50;25.60
77613;DHT22;66777;52.282;5.960;2023-04-03T12:05:25;29.70;26.80
77613;DHT22;66777;52.282;5.960;2023-04-03T12:08:36;26.50;27.50
77613;DHT22;66777;52.282;5.960;2023-04-03T12:24:31;20.10;32.00
77613;DHT22;66777;52.282;5.960;2023-04-03T12:35:31;20.20;31.90
77613;DHT22;66777;52.282;5.960;2023-04-03T12:48:58;20.20;35.10
77613;DHT22;66777;52.282;5.960;2023-04-03T12:51:39;19.50;37.00
77613;DHT22;66777;52.282;5.960;2023-04-03T12:57:20;20.00;38.70
77613;DHT22;66777;52.282;5.960;2023-04-03T12:59:47;20.40;36.80
77613;DHT22;66777;52.282;5.960;2023-04-03T13:02:27;20.30;37.10
77613;DHT22;66777;52.282;5.960;2023-04-03T13:04:58;20.50;35.60
77613;DHT22;66777;52.282;5.960;2023-04-03T13:07:31;20.50;36.00
77613;DHT22;66777;52.282;5.960;2023-04-03T13:10:13;20.50;35.70
77613;DHT22;66777;52.282;5.960;2023-04-03T13:12:47;20.90;35.00
77613;DHT22;66777;52.282;5.960;2023-04-03T13:15:19;21.10;35.30
77613;DHT22;66777;52.282;5.960;2023-04-03T13:17:45;21.70;34.50
77613;DHT22;66777;52.282;5.960;2023-04-03T13:20:26;21.90;34.50
77613;DHT22;66777;52.282;5.960;2023-04-03T13:23:02;21.70;33.90
77613;DHT22;66777;52.282;5.960;2023-04-03T13:25:32;21.70;34.10
77613;DHT22;66777;52.282;5.960;2023-04-03T13:27:59;22.20;34.00
77613;DHT22;66777;52.282;5.960;2023-04-03T13:30:30;22.40;33.40
77613;DHT22;66777;52.282;5.960;2023-04-03T13:32:59;22.70;33.50
77613;DHT22;66777;52.282;5.960;2023-04-03T13:35:40;23.10;33.00
77613;DHT22;66777;52.282;5.960;2023-04-03T13:38:29;22.90;32.20
77613;DHT22;66777;52.282;5.960;2023-04-03T13:41:00;22.80;31.30
77613;DHT22;66777;52.282;5.960;2023-04-03T13:43:30;22.80;32.60
77613;DHT22;66777;52.282;5.960;2023-04-03T13:48:43;23.10;32.20
77613;DHT22;66777;52.282;5.960;2023-04-03T13:53:44;24.00;30.50
77613;DHT22;66777;52.282;5.960;2023-04-03T13:56:21;23.70;31.10
77613;DHT22;66777;52.282;5.960;2023-04-03T13:59:01;23.00;30.10
77613;DHT22;66777;52.282;5.960;2023-04-03T14:02:20;23.20;30.20
77613;DHT22;66777;52.282;5.960;2023-04-03T14:04:26;23.60;31.10
77613;DHT22;66777;52.282;5.960;2023-04-03T14:06:54;23.90;30.90
77613;DHT22;66777;52.282;5.960;2023-04-03T14:09:21;24.20;31.10
77613;DHT22;66777;52.282;5.960;2023-04-03T14:11:50;24.20;30.90
77613;DHT22;66777;52.282;5.960;2023-04-03T14:14:23;24.40;30.70
77613;DHT22;66777;52.282;5.960;2023-04-03T14:16:54;24.60;31.50
77613;DHT22;66777;52.282;5.960;2023-04-03T14:19:32;25.00;31.10
77613;DHT22;66777;52.282;5.960;2023-04-03T14:24:48;25.80;30.50
77613;DHT22;66777;52.282;5.960;2023-04-03T14:27:33;25.70;30.50
77613;DHT22;66777;52.282;5.960;2023-04-03T14:30:01;26.60;29.60
77613;DHT22;66777;52.282;5.960;2023-04-03T14:32:29;26.80;30.30
77613;DHT22;66777;52.282;5.960;2023-04-03T14:34:54;27.50;29.90
77613;DHT22;66777;52.282;5.960;2023-04-03T14:37:26;28.30;29.60
77613;DHT22;66777;52.282;5.960;2023-04-03T14:39:53;29.30;29.70
77613;DHT22;66777;52.282;5.960;2023-04-03T14:42:22;31.00;28.10
77613;DHT22;66777;52.282;5.960;2023-04-03T14:44:49;31.60;26.70
77613;DHT22;66777;52.282;5.960;2023-04-03T14:47:27;32.20;27.20
77613;DHT22;66777;52.282;5.960;2023-04-03T14:49:53;33.40;26.60
77613;DHT22;66777;52.282;5.960;2023-04-03T14:52:22;33.40;26.30
77613;DHT22;66777;52.282;5.960;2023-04-03T14:54:49;34.10;26.10
77613;DHT22;66777;52.282;5.960;2023-04-03T14:57:15;34.20;26.10
77613;DHT22;66777;52.282;5.960;2023-04-03T14:59:43;35.00;26.00
77613;DHT22;66777;52.282;5.960;2023-04-03T15:04:47;33.30;25.90
77613;DHT22;66777;52.282;5.960;2023-04-03T15:07:13;33.60;26.10
77613;DHT22;66777;52.282;5.960;2023-04-03T15:09:39;33.60;25.70
77613;DHT22;66777;52.282;5.960;2023-04-03T15:12:04;32.80;26.30
77613;DHT22;66777;52.282;5.960;2023-04-03T15:14:30;31.80;26.60
77613;DHT22;66777;52.282;5.960;2023-04-03T15:16:56;31.80;26.80
77613;DHT22;66777;52.282;5.960;2023-04-03T15:19:23;31.50;27.20
77613;DHT22;66777;52.282;5.960;2023-04-03T15:21:49;30.00;28.00
77613;DHT22;66777;52.282;5.960;2023-04-03T15:24:15;29.00;28.20
77613;DHT22;66777;52.282;5.960;2023-04-03T15:26:41;27.00;29.10
77613;DHT22;66777;52.282;5.960;2023-04-03T15:29:07;26.80;29.70
77613;DHT22;66777;52.282;5.960;2023-04-03T15:31:33;27.70;29.60
77613;DHT22;66777;52.282;5.960;2023-04-03T15:33:59;26.70;29.30
77613;DHT22;66777;52.282;5.960;2023-04-03T15:36:25;25.00;29.80
77613;DHT22;66777;52.282;5.960;2023-04-03T15:38:51;23.30;30.60
77613;DHT22;66777;52.282;5.960;2023-04-03T15:41:17;22.50;31.40
77613;DHT22;66777;52.282;5.960;2023-04-03T15:43:43;22.30;31.50
77613;DHT22;66777;52.282;5.960;2023-04-03T15:46:09;23.80;30.70
77613;DHT22;66777;52.282;5.960;2023-04-03T15:48:36;24.80;30.10
77613;DHT22;66777;52.282;5.960;2023-04-03T15:51:01;25.40;29.50
77613;DHT22;66777;52.282;5.960;2023-04-03T15:53:27;25.40;29.80
77613;DHT22;66777;52.282;5.960;2023-04-03T15:55:53;25.60;30.00
77613;DHT22;66777;52.282;5.960;2023-04-03T15:58:20;26.40;29.80
77613;DHT22;66777;52.282;5.960;2023-04-03T16:00:46;25.60;29.80
77613;DHT22;66777;52.282;5.960;2023-04-03T16:03:16;24.00;30.70
77613;DHT22;66777;52.282;5.960;2023-04-03T16:05:42;22.90;32.50
77613;DHT22;66777;52.282;5.960;2023-04-03T16:08:08;21.30;32.60
77613;DHT22;66777;52.282;5.960;2023-04-03T16:10:36;19.90;33.50
77613;DHT22;66777;52.282;5.960;2023-04-03T16:13:03;18.80;33.60
77613;DHT22;66777;52.282;5.960;2023-04-03T16:15:30;17.40;35.50
77613;DHT22;66777;52.282;5.960;2023-04-03T16:17:57;16.70;36.80
77613;DHT22;66777;52.282;5.960;2023-04-03T16:20:24;16.00;36.80
77613;DHT22;66777;52.282;5.960;2023-04-03T16:22:50;15.20;37.60
77613;DHT22;66777;52.282;5.960;2023-04-03T16:25:18;15.00;37.70
77613;DHT22;66777;52.282;5.960;2023-04-03T16:27:44;15.40;37.20
77613;DHT22;66777;52.282;5.960;2023-04-03T16:30:11;14.40;38.20
77613;DHT22;66777;52.282;5.960;2023-04-03T16:32:39;13.60;39.20
77613;DHT22;66777;52.282;5.960;2023-04-03T16:35:06;13.00;39.60
77613;DHT22;66777;52.282;5.960;2023-04-03T16:37:33;12.40;40.30
77613;DHT22;66777;52.282;5.960;2023-04-03T16:39:59;12.00;40.70
77613;DHT22;66777;52.282;5.960;2023-04-03T16:42:25;11.70;40.90
77613;DHT22;66777;52.282;5.960;2023-04-03T16:44:51;11.50;42.00
77613;DHT22;66777;52.282;5.960;2023-04-03T16:47:17;11.30;41.50
77613;DHT22;66777;52.282;5.960;2023-04-03T16:49:46;11.10;41.50
77613;DHT22;66777;52.282;5.960;2023-04-03T16:52:13;10.90;42.00
77613;DHT22;66777;52.282;5.960;2023-04-03T16:54:41;10.60;42.10
77613;DHT22;66777;52.282;5.960;2023-04-03T16:57:08;10.40;42.50
77613;DHT22;66777;52.282;5.960;2023-04-03T16:59:34;10.30;43.10
77613;DHT22;66777;52.282;5.960;2023-04-03T17:01:59;10.10;42.80
77613;DHT22;66777;52.282;5.960;2023-04-03T17:04:25;10.10;43.00
77613;DHT22;66777;52.282;5.960;2023-04-03T17:06:51;10.00;43.40
77613;DHT22;66777;52.282;5.960;2023-04-03T17:09:17;10.00;43.70
77613;DHT22;66777;52.282;5.960;2023-04-03T17:11:43;9.80;43.90
77613;DHT22;66777;52.282;5.960;2023-04-03T17:14:09;9.70;43.70
77613;DHT22;66777;52.282;5.960;2023-04-03T17:16:37;9.60;44.10
77613;DHT22;66777;52.282;5.960;2023-04-03T17:19:03;9.50;44.40
77613;DHT22;66777;52.282;5.960;2023-04-03T17:21:32;9.40;44.40
77613;DHT22;66777;52.282;5.960;2023-04-03T17:24:03;9.20;44.80
77613;DHT22;66777;52.282;5.960;2023-04-03T17:26:34;9.20;44.70
77613;DHT22;66777;52.282;5.960;2023-04-03T17:29:03;9.10;45.30
77613;DHT22;66777;52.282;5.960;2023-04-03T17:31:29;9.00;45.30
77613;DHT22;66777;52.282;5.960;2023-04-03T17:33:55;9.00;45.30
77613;DHT22;66777;52.282;5.960;2023-04-03T17:36:21;8.90;46.20
77613;DHT22;66777;52.282;5.960;2023-04-03T17:38:50;8.90;46.20